Denpasar/Ngurah Rai International Airport

Airport
ICAO code: 
WADD
IATA Code: 
DPS
Summary
ICAO Region: 
APAC
Territory: 
Location: 
Denpasar, Badung, Bali
Serving: 
Denpasar
Elevation: 
4 ft
Coordinates: 
Aerial View: 
8° 44' 53" S, 115° 10' 3" E
Metar
Observation
WADD 060900Z 27016KT 9999 SCT016 29/25 Q1007 NOSIG
Station
BALI INTL
Date/Time
2021-12-06 09:00:00
Wind direction
270°
Wind speed
16 kts
Lowest cloud amount
scattered clouds
Temperature
29°C
Dew point
25°C
Humidity
79%
QNH
1007 hPa
Weather condition
n/a

International airport serving Bali and Denpasar.

Climatology

Tropical Savanna climate (Köppen climate classification Aw) - monthly mean temperature above 18°C in every month of the year and a pronounced dry season.

Runways

Designator Length Width Surface Rops
9/27 2984 45 ASP Yes/Yes
Airport map: 
Aerial View: 

Accidents and Serious Incidents at or in the vicinity of WADD

SKYbrary Partners:

Safety knowledge contributed by: